SBI764 UIII-UBBB
Flight info
| Callsign | SBI764 |
|---|---|
| Flight time | 5h 56m |
| Altitude | 34000 |
| Route | BD M98 KUDEB/K0835F360 B715 LAGMO L988 AST P574 OGANU/K0822F380 N55 MASAV N161 TITIL N55 BALUN/N0445F380 N70 ROPKA |
| Aircraft | A320/M-SDE3FGHIRWY/LB1 |
Departure
| Time | 2026-04-28 08:37 |
|---|---|
| Airport | Irkutsk International Airport (UIII) |
Arrival
| Time | 2026-04-28 14:33 |
|---|---|
| Airport | Heydar Aliyev International Airport (UBBB) |
| Time | Latitude | Longitude | Altitude | Speed | Heading |
|---|---|---|---|---|---|
| 2026-04-28 07:55 | 52.27139 | 104.36243 | 1681 ft | 0 kts | 356° |
| 2026-04-28 08:30 | 52.27145 | 104.36243 | 1681 ft | 1 kts | 356° |
| 2026-04-28 08:30 | 52.27161 | 104.36241 | 1681 ft | 2 kts | 1° |
| 2026-04-28 08:30 | 52.27185 | 104.36244 | 1681 ft | 3 kts | 8° |
| 2026-04-28 08:31 | 52.27184 | 104.36286 | 1681 ft | 8 kts | 104° |
| 2026-04-28 08:31 | 52.27143 | 104.36479 | 1681 ft | 26 kts | 113° |
| 2026-04-28 08:31 | 52.27054 | 104.36831 | 1681 ft | 35 kts | 113° |
| 2026-04-28 08:31 | 52.27012 | 104.37199 | 1681 ft | 29 kts | 105° |
| 2026-04-28 08:32 | 52.26939 | 104.37496 | 1681 ft | 27 kts | 115° |
| 2026-04-28 08:32 | 52.26859 | 104.37775 | 1681 ft | 28 kts | 118° |
| 2026-04-28 08:32 | 52.26777 | 104.38088 | 1681 ft | 31 kts | 114° |
| 2026-04-28 08:32 | 52.26693 | 104.38423 | 1681 ft | 33 kts | 111° |
| 2026-04-28 08:33 | 52.26604 | 104.38791 | 1681 ft | 36 kts | 114° |
| 2026-04-28 08:33 | 52.26495 | 104.39169 | 1681 ft | 38 kts | 114° |
| 2026-04-28 08:33 | 52.26396 | 104.39585 | 1681 ft | 40 kts | 112° |
| 2026-04-28 08:33 | 52.26274 | 104.40014 | 1681 ft | 42 kts | 115° |
| 2026-04-28 08:34 | 52.26155 | 104.40459 | 1681 ft | 44 kts | 111° |
| 2026-04-28 08:34 | 52.26033 | 104.40918 | 1681 ft | 42 kts | 108° |
| 2026-04-28 08:34 | 52.26114 | 104.41233 | 1681 ft | 32 kts | 38° |
| 2026-04-28 08:34 | 52.26170 | 104.41506 | 1681 ft | 27 kts | 113° |
| 2026-04-28 08:35 | 52.26087 | 104.41775 | 1682 ft | 23 kts | 134° |
| 2026-04-28 08:35 | 52.26056 | 104.41821 | 1681 ft | 7 kts | 31° |
| 2026-04-28 08:35 | 52.26112 | 104.41712 | 1681 ft | 19 kts | 296° |
| 2026-04-28 08:35 | 52.26133 | 104.41629 | 1681 ft | 0 kts | 291° |
| 2026-04-28 08:36 | 52.26179 | 104.41448 | 1681 ft | 49 kts | 293° |
| 2026-04-28 08:36 | 52.26410 | 104.40579 | 1681 ft | 113 kts | 294° |
| 2026-04-28 08:36 | 52.26786 | 104.39105 | 1688 ft | 163 kts | 288° |
| 2026-04-28 08:36 | 52.27219 | 104.37326 | 2044 ft | 171 kts | 292° |
| 2026-04-28 08:37 | 52.27811 | 104.35574 | 2442 ft | 182 kts | 295° |
| 2026-04-28 08:37 | 52.28347 | 104.33624 | 2779 ft | 194 kts | 290° |
| 2026-04-28 08:37 | 52.28883 | 104.31489 | 3101 ft | 211 kts | 290° |
| 2026-04-28 08:37 | 52.29532 | 104.29160 | 3420 ft | 235 kts | 301° |
| 2026-04-28 08:38 | 52.30690 | 104.27125 | 3882 ft | 255 kts | 322° |
| 2026-04-28 08:38 | 52.32224 | 104.25433 | 4381 ft | 272 kts | 326° |
| 2026-04-28 08:38 | 52.33837 | 104.23756 | 5070 ft | 280 kts | 327° |
| 2026-04-28 08:38 | 52.35472 | 104.22022 | 5895 ft | 282 kts | 322° |
| 2026-04-28 08:39 | 52.36733 | 104.19611 | 6640 ft | 283 kts | 291° |
| 2026-04-28 08:39 | 52.37160 | 104.16456 | 7435 ft | 282 kts | 274° |
| 2026-04-28 08:39 | 52.37300 | 104.13246 | 8105 ft | 287 kts | 272° |
| 2026-04-28 08:39 | 52.37408 | 104.10595 | 8632 ft | 289 kts | 273° |
| 2026-04-28 08:40 | 52.37581 | 104.07272 | 9293 ft | 292 kts | 275° |
| 2026-04-28 08:40 | 52.37788 | 104.03998 | 9928 ft | 295 kts | 275° |
| 2026-04-28 08:40 | 52.38024 | 104.00648 | 10477 ft | 301 kts | 276° |
| 2026-04-28 08:40 | 52.38284 | 103.97133 | 10799 ft | 318 kts | 276° |
| 2026-04-28 08:41 | 52.38566 | 103.93430 | 11109 ft | 333 kts | 276° |
| 2026-04-28 08:41 | 52.38866 | 103.89568 | 11414 ft | 349 kts | 276° |
| 2026-04-28 08:41 | 52.39175 | 103.85618 | 11860 ft | 358 kts | 276° |
| 2026-04-28 08:41 | 52.39492 | 103.81566 | 12501 ft | 359 kts | 276° |
| 2026-04-28 08:42 | 52.39805 | 103.77550 | 13154 ft | 361 kts | 276° |
| 2026-04-28 08:42 | 52.40125 | 103.73437 | 13793 ft | 362 kts | 276° |
| 2026-04-28 08:42 | 52.40440 | 103.69360 | 14370 ft | 364 kts | 277° |
| 2026-04-28 08:42 | 52.40758 | 103.65246 | 14958 ft | 367 kts | 277° |
| 2026-04-28 08:43 | 52.41082 | 103.61063 | 15582 ft | 371 kts | 277° |
| 2026-04-28 08:43 | 52.41408 | 103.56836 | 16215 ft | 373 kts | 277° |
| 2026-04-28 08:43 | 52.41729 | 103.52649 | 16823 ft | 376 kts | 277° |
| 2026-04-28 08:43 | 52.42057 | 103.48344 | 17423 ft | 378 kts | 277° |
| 2026-04-28 08:44 | 52.42381 | 103.44081 | 17998 ft | 380 kts | 277° |
| 2026-04-28 08:44 | 52.42709 | 103.39719 | 18554 ft | 383 kts | 277° |
| 2026-04-28 08:44 | 52.43037 | 103.35345 | 19099 ft | 386 kts | 277° |
| 2026-04-28 08:44 | 52.43366 | 103.30926 | 19645 ft | 389 kts | 276° |
| 2026-04-28 08:45 | 52.43694 | 103.26496 | 20180 ft | 392 kts | 276° |
| 2026-04-28 08:45 | 52.44019 | 103.22096 | 20697 ft | 394 kts | 276° |
| 2026-04-28 08:45 | 52.44357 | 103.17593 | 21195 ft | 396 kts | 277° |
| 2026-04-28 08:45 | 52.44727 | 103.13064 | 21665 ft | 400 kts | 277° |
| 2026-04-28 08:46 | 52.45106 | 103.08509 | 22133 ft | 402 kts | 277° |
| 2026-04-28 08:46 | 52.45484 | 103.03947 | 22594 ft | 405 kts | 277° |
| 2026-04-28 08:46 | 52.45861 | 102.99356 | 23039 ft | 408 kts | 277° |
| 2026-04-28 08:46 | 52.46239 | 102.94730 | 23473 ft | 411 kts | 277° |
| 2026-04-28 08:47 | 52.46620 | 102.90028 | 23897 ft | 413 kts | 277° |
| 2026-04-28 08:47 | 52.46998 | 102.85339 | 24306 ft | 416 kts | 277° |
| 2026-04-28 08:47 | 52.47376 | 102.80629 | 24698 ft | 417 kts | 277° |
| 2026-04-28 08:47 | 52.47755 | 102.75877 | 25067 ft | 420 kts | 277° |
| 2026-04-28 08:48 | 52.48128 | 102.71164 | 25441 ft | 423 kts | 277° |
| 2026-04-28 08:48 | 52.48504 | 102.66383 | 25819 ft | 425 kts | 277° |
| 2026-04-28 08:48 | 52.48883 | 102.61552 | 26187 ft | 427 kts | 277° |
| 2026-04-28 08:48 | 52.49263 | 102.56673 | 26547 ft | 429 kts | 277° |
| 2026-04-28 08:49 | 52.49642 | 102.51768 | 26906 ft | 431 kts | 277° |
| 2026-04-28 08:49 | 52.50022 | 102.46832 | 27255 ft | 433 kts | 277° |
| 2026-04-28 08:49 | 52.50396 | 102.41940 | 27583 ft | 435 kts | 277° |
| 2026-04-28 08:49 | 52.50771 | 102.37022 | 27899 ft | 437 kts | 277° |
| 2026-04-28 08:50 | 52.51149 | 102.32031 | 28210 ft | 439 kts | 277° |
| 2026-04-28 08:50 | 52.51525 | 102.27033 | 28509 ft | 441 kts | 277° |
| 2026-04-28 08:50 | 52.51904 | 102.21973 | 28789 ft | 442 kts | 277° |
| 2026-04-28 08:50 | 52.52281 | 102.16912 | 29083 ft | 442 kts | 277° |
| 2026-04-28 08:51 | 52.52659 | 102.11822 | 29424 ft | 442 kts | 277° |
| 2026-04-28 08:51 | 52.53031 | 102.06789 | 29794 ft | 441 kts | 277° |
| 2026-04-28 08:51 | 52.53396 | 102.01815 | 30174 ft | 440 kts | 277° |
| 2026-04-28 08:51 | 52.53764 | 101.96778 | 30557 ft | 439 kts | 277° |
| 2026-04-28 08:52 | 52.54121 | 101.91835 | 30929 ft | 438 kts | 277° |
| 2026-04-28 08:52 | 52.54483 | 101.86814 | 31300 ft | 437 kts | 277° |
| 2026-04-28 08:52 | 52.54836 | 101.81878 | 31668 ft | 436 kts | 277° |
| 2026-04-28 08:52 | 52.55190 | 101.76911 | 32043 ft | 434 kts | 277° |
| 2026-04-28 08:53 | 52.55536 | 101.72012 | 32422 ft | 432 kts | 277° |
| 2026-04-28 08:53 | 52.55882 | 101.67091 | 32797 ft | 430 kts | 277° |
| 2026-04-28 08:53 | 52.56219 | 101.62262 | 33140 ft | 428 kts | 277° |
| 2026-04-28 08:53 | 52.56560 | 101.57327 | 33450 ft | 427 kts | 277° |
| 2026-04-28 08:54 | 52.56894 | 101.52483 | 33722 ft | 427 kts | 277° |
| 2026-04-28 08:54 | 52.57230 | 101.47588 | 33912 ft | 429 kts | 277° |
| 2026-04-28 08:54 | 52.57562 | 101.42709 | 33933 ft | 435 kts | 277° |
| 2026-04-28 08:55 | 52.58237 | 101.32698 | 33899 ft | 445 kts | 276° |
| 2026-04-28 08:55 | 52.58915 | 101.22504 | 34042 ft | 444 kts | 276° |
| 2026-04-28 08:55 | 52.59249 | 101.17435 | 34222 ft | 440 kts | 276° |
| 2026-04-28 08:56 | 52.59573 | 101.12502 | 34379 ft | 436 kts | 276° |
| 2026-04-28 08:56 | 52.59900 | 101.07503 | 34532 ft | 434 kts | 276° |
| 2026-04-28 08:56 | 52.60217 | 101.02605 | 34783 ft | 431 kts | 276° |
| 2026-04-28 08:56 | 52.60537 | 100.97647 | 35039 ft | 427 kts | 276° |
| 2026-04-28 08:57 | 52.60845 | 100.92857 | 35288 ft | 424 kts | 275° |
| 2026-04-28 08:57 | 52.61153 | 100.88014 | 35535 ft | 420 kts | 275° |
| 2026-04-28 08:57 | 52.61453 | 100.83305 | 35748 ft | 417 kts | 275° |
| 2026-04-28 08:57 | 52.61758 | 100.78476 | 35885 ft | 417 kts | 275° |
| 2026-04-28 08:58 | 52.62051 | 100.73714 | 35744 ft | 424 kts | 275° |
| 2026-04-28 08:58 | 52.62639 | 100.64030 | 35822 ft | 425 kts | 275° |
| 2026-04-28 08:58 | 52.62934 | 100.59166 | 35620 ft | 423 kts | 275° |
| 2026-04-28 08:59 | 52.63223 | 100.54374 | 35412 ft | 417 kts | 275° |
| 2026-04-28 08:59 | 52.63508 | 100.49630 | 35201 ft | 416 kts | 275° |
| 2026-04-28 08:59 | 52.63795 | 100.44828 | 34960 ft | 416 kts | 275° |
| 2026-04-28 08:59 | 52.64076 | 100.40084 | 34723 ft | 416 kts | 275° |
| 2026-04-28 09:00 | 52.64360 | 100.35268 | 34536 ft | 415 kts | 275° |
| 2026-04-28 09:00 | 52.64910 | 100.25806 | 34647 ft | 413 kts | 274° |
| 2026-04-28 09:01 | 52.65451 | 100.16356 | 34637 ft | 415 kts | 274° |
| 2026-04-28 09:01 | 52.65988 | 100.06780 | 34595 ft | 419 kts | 274° |
| 2026-04-28 09:02 | 52.66516 | 99.97231 | 34482 ft | 418 kts | 274° |
| 2026-04-28 09:02 | 52.67040 | 99.87640 | 34622 ft | 415 kts | 274° |
| 2026-04-28 09:02 | 52.67296 | 99.82903 | 34823 ft | 411 kts | 274° |
| 2026-04-28 09:03 | 52.67548 | 99.78197 | 35039 ft | 407 kts | 274° |
| 2026-04-28 09:03 | 52.67794 | 99.73569 | 35271 ft | 404 kts | 274° |
| 2026-04-28 09:03 | 52.68037 | 99.68961 | 35431 ft | 405 kts | 274° |
| 2026-04-28 09:04 | 52.68527 | 99.59529 | 35351 ft | 412 kts | 274° |
| 2026-04-28 09:04 | 52.68767 | 99.54860 | 35215 ft | 412 kts | 274° |
| 2026-04-28 09:04 | 52.69010 | 99.50118 | 34991 ft | 412 kts | 274° |
| 2026-04-28 09:04 | 52.69251 | 99.45388 | 34777 ft | 412 kts | 274° |
| 2026-04-28 09:05 | 52.69487 | 99.40694 | 34749 ft | 411 kts | 274° |
| 2026-04-28 09:05 | 52.69955 | 99.31295 | 34818 ft | 411 kts | 273° |
| 2026-04-28 09:06 | 52.70419 | 99.21845 | 34938 ft | 410 kts | 273° |
| 2026-04-28 09:06 | 52.70878 | 99.12364 | 34823 ft | 413 kts | 272° |
| 2026-04-28 09:06 | 52.71101 | 99.07655 | 34664 ft | 413 kts | 272° |
| 2026-04-28 09:07 | 52.71325 | 99.02905 | 34547 ft | 412 kts | 272° |
| 2026-04-28 09:07 | 52.71548 | 98.98133 | 34421 ft | 412 kts | 272° |
| 2026-04-28 09:07 | 52.71763 | 98.93426 | 34335 ft | 412 kts | 272° |
| 2026-04-28 09:08 | 52.72190 | 98.83974 | 34410 ft | 411 kts | 272° |
| 2026-04-28 09:08 | 52.72409 | 98.79244 | 34618 ft | 407 kts | 274° |
| 2026-04-28 09:08 | 52.73008 | 98.74749 | 34860 ft | 408 kts | 287° |
| 2026-04-28 09:08 | 52.74220 | 98.70478 | 35072 ft | 410 kts | 295° |
| 2026-04-28 09:09 | 52.75662 | 98.66399 | 35198 ft | 411 kts | 297° |
| 2026-04-28 09:09 | 52.78716 | 98.58219 | 35238 ft | 420 kts | 298° |
| 2026-04-28 09:10 | 52.81843 | 98.49934 | 35077 ft | 424 kts | 298° |
| 2026-04-28 09:10 | 52.83416 | 98.45787 | 34964 ft | 424 kts | 298° |
| 2026-04-28 09:10 | 52.84990 | 98.41646 | 34946 ft | 424 kts | 298° |
| 2026-04-28 09:11 | 52.88134 | 98.33397 | 35123 ft | 422 kts | 297° |
| 2026-04-28 09:11 | 52.89698 | 98.29301 | 35284 ft | 420 kts | 297° |
| 2026-04-28 09:11 | 52.91095 | 98.25048 | 35448 ft | 413 kts | 287° |
| 2026-04-28 09:11 | 52.91861 | 98.20485 | 35575 ft | 407 kts | 275° |
| 2026-04-28 09:12 | 52.92032 | 98.15829 | 35610 ft | 406 kts | 268° |
| 2026-04-28 09:12 | 52.91872 | 98.06358 | 35518 ft | 408 kts | 266° |
| 2026-04-28 09:13 | 52.91598 | 97.96939 | 35384 ft | 408 kts | 261° |
| 2026-04-28 09:13 | 52.90402 | 97.87660 | 35308 ft | 406 kts | 255° |
| 2026-04-28 09:14 | 52.89012 | 97.78574 | 35289 ft | 405 kts | 255° |
| 2026-04-28 09:14 | 52.87631 | 97.69486 | 35337 ft | 404 kts | 255° |
| 2026-04-28 09:15 | 52.86254 | 97.60381 | 35519 ft | 404 kts | 255° |
| 2026-04-28 09:15 | 52.85568 | 97.55827 | 35621 ft | 404 kts | 255° |
| 2026-04-28 09:15 | 52.84883 | 97.51274 | 35715 ft | 403 kts | 256° |
| 2026-04-28 09:16 | 52.83527 | 97.42255 | 35831 ft | 404 kts | 256° |
| 2026-04-28 09:16 | 52.82158 | 97.33149 | 35850 ft | 404 kts | 255° |
| 2026-04-28 09:17 | 52.80785 | 97.24023 | 35835 ft | 403 kts | 255° |
| 2026-04-28 09:17 | 52.79572 | 97.14924 | 35861 ft | 404 kts | 259° |
| 2026-04-28 09:18 | 52.79023 | 97.05614 | 35919 ft | 405 kts | 266° |
| 2026-04-28 09:18 | 52.79112 | 96.96268 | 35967 ft | 407 kts | 270° |
| 2026-04-28 09:19 | 52.79386 | 96.86893 | 35921 ft | 407 kts | 270° |
| 2026-04-28 09:19 | 52.79657 | 96.77471 | 35822 ft | 406 kts | 270° |
| 2026-04-28 09:20 | 52.79913 | 96.68152 | 35744 ft | 405 kts | 270° |
| 2026-04-28 09:20 | 52.80161 | 96.58761 | 35769 ft | 405 kts | 270° |
| 2026-04-28 09:21 | 52.80399 | 96.49406 | 35820 ft | 404 kts | 270° |
| 2026-04-28 09:21 | 52.80632 | 96.40128 | 35845 ft | 403 kts | 270° |
| 2026-04-28 09:22 | 52.80857 | 96.30759 | 35838 ft | 403 kts | 269° |
| 2026-04-28 09:22 | 52.81068 | 96.21513 | 35824 ft | 403 kts | 269° |
| 2026-04-28 09:23 | 52.81275 | 96.12116 | 35869 ft | 404 kts | 269° |
| 2026-04-28 09:23 | 52.81476 | 96.02734 | 35934 ft | 404 kts | 269° |
| 2026-04-28 09:24 | 52.81668 | 95.93448 | 35989 ft | 404 kts | 269° |
| 2026-04-28 09:24 | 52.81855 | 95.84092 | 36022 ft | 404 kts | 268° |
| 2026-04-28 09:25 | 52.82035 | 95.74747 | 36059 ft | 404 kts | 268° |
| 2026-04-28 09:25 | 52.82208 | 95.65341 | 36090 ft | 404 kts | 268° |
| 2026-04-28 09:26 | 52.82373 | 95.55967 | 36104 ft | 404 kts | 268° |
| 2026-04-28 09:26 | 52.82529 | 95.46656 | 36108 ft | 404 kts | 268° |
| 2026-04-28 09:27 | 52.82751 | 95.32620 | 36038 ft | 404 kts | 268° |
| 2026-04-28 09:27 | 52.82890 | 95.23288 | 35973 ft | 403 kts | 268° |
| 2026-04-28 09:28 | 52.83021 | 95.13999 | 35865 ft | 403 kts | 268° |
| 2026-04-28 09:28 | 52.83084 | 95.09364 | 35710 ft | 403 kts | 268° |
| 2026-04-28 09:28 | 52.83145 | 95.04682 | 35513 ft | 403 kts | 268° |
| 2026-04-28 09:29 | 52.83205 | 94.99984 | 35293 ft | 402 kts | 268° |
| 2026-04-28 09:29 | 52.83262 | 94.95383 | 35157 ft | 402 kts | 267° |
| 2026-04-28 09:29 | 52.83373 | 94.86092 | 35099 ft | 401 kts | 267° |
| 2026-04-28 09:30 | 52.83475 | 94.76737 | 35104 ft | 401 kts | 267° |
| 2026-04-28 09:30 | 52.83567 | 94.67445 | 35138 ft | 401 kts | 267° |
| 2026-04-28 09:31 | 52.83653 | 94.58201 | 35192 ft | 401 kts | 267° |
| 2026-04-28 09:31 | 52.83732 | 94.48930 | 35224 ft | 400 kts | 267° |
| 2026-04-28 09:32 | 52.83804 | 94.39665 | 35207 ft | 400 kts | 267° |
| 2026-04-28 09:32 | 52.83870 | 94.30317 | 35172 ft | 400 kts | 266° |
| 2026-04-28 09:33 | 52.83928 | 94.21042 | 35116 ft | 400 kts | 266° |
| 2026-04-28 09:33 | 52.83981 | 94.11803 | 35030 ft | 400 kts | 266° |
| 2026-04-28 09:34 | 52.84004 | 94.07212 | 34810 ft | 400 kts | 266° |
| 2026-04-28 09:34 | 52.84025 | 94.02580 | 34582 ft | 401 kts | 266° |
| 2026-04-28 09:34 | 52.84044 | 93.97962 | 34354 ft | 401 kts | 266° |
| 2026-04-28 09:34 | 52.84061 | 93.93331 | 34126 ft | 401 kts | 266° |
| 2026-04-28 09:35 | 52.84077 | 93.88702 | 33850 ft | 402 kts | 266° |
| 2026-04-28 09:35 | 52.84092 | 93.84086 | 33546 ft | 402 kts | 266° |
| 2026-04-28 09:35 | 52.84104 | 93.79423 | 33241 ft | 403 kts | 266° |
| 2026-04-28 09:35 | 52.84113 | 93.74766 | 32968 ft | 403 kts | 266° |
| 2026-04-28 09:36 | 52.84106 | 93.65519 | 32943 ft | 404 kts | 265° |
| 2026-04-28 09:36 | 52.84050 | 93.56211 | 33031 ft | 404 kts | 265° |
| 2026-04-28 09:37 | 52.84020 | 93.51564 | 33139 ft | 405 kts | 265° |
| 2026-04-28 09:37 | 52.83987 | 93.46891 | 33232 ft | 405 kts | 265° |
| 2026-04-28 09:37 | 52.83921 | 93.37591 | 33282 ft | 404 kts | 265° |
| 2026-04-28 09:38 | 52.83848 | 93.28254 | 33246 ft | 403 kts | 264° |
| 2026-04-28 09:38 | 52.83770 | 93.18919 | 33229 ft | 403 kts | 264° |
| 2026-04-28 09:39 | 52.83684 | 93.09644 | 33258 ft | 403 kts | 264° |
| 2026-04-28 09:39 | 52.83591 | 93.00271 | 33325 ft | 403 kts | 264° |
| 2026-04-28 09:40 | 52.83490 | 92.90962 | 33390 ft | 403 kts | 264° |
| 2026-04-28 09:40 | 52.83382 | 92.81634 | 33404 ft | 402 kts | 264° |
| 2026-04-28 09:41 | 52.83268 | 92.72356 | 33395 ft | 402 kts | 264° |
| 2026-04-28 09:41 | 52.83145 | 92.63094 | 33350 ft | 402 kts | 264° |
| 2026-04-28 09:42 | 52.83016 | 92.53798 | 33280 ft | 402 kts | 264° |
| 2026-04-28 09:42 | 52.82879 | 92.44470 | 33243 ft | 403 kts | 264° |
| 2026-04-28 09:43 | 52.82735 | 92.35153 | 33324 ft | 403 kts | 264° |
| 2026-04-28 09:43 | 52.82583 | 92.25797 | 33578 ft | 402 kts | 263° |
| 2026-04-28 09:44 | 52.82505 | 92.21184 | 33745 ft | 402 kts | 263° |
| 2026-04-28 09:44 | 52.82424 | 92.16493 | 33796 ft | 402 kts | 263° |
| 2026-04-28 09:44 | 52.82259 | 92.07281 | 33720 ft | 401 kts | 263° |
| 2026-04-28 09:45 | 52.82088 | 91.98039 | 33523 ft | 401 kts | 263° |
| 2026-04-28 09:45 | 52.81908 | 91.88762 | 33479 ft | 401 kts | 263° |
| 2026-04-28 09:46 | 52.81721 | 91.79476 | 33493 ft | 401 kts | 263° |
| 2026-04-28 09:46 | 52.81529 | 91.70232 | 33579 ft | 403 kts | 263° |
| 2026-04-28 09:47 | 52.81327 | 91.60941 | 33703 ft | 403 kts | 263° |
| 2026-04-28 09:47 | 52.81118 | 91.51584 | 33750 ft | 403 kts | 263° |
| 2026-04-28 09:48 | 52.80898 | 91.42213 | 33697 ft | 403 kts | 263° |
| 2026-04-28 09:48 | 52.80633 | 91.32872 | 33531 ft | 403 kts | 262° |
| 2026-04-28 09:49 | 52.80331 | 91.23579 | 33401 ft | 403 kts | 262° |
| 2026-04-28 09:49 | 52.80022 | 91.14236 | 33484 ft | 403 kts | 262° |
| 2026-04-28 09:50 | 52.79870 | 91.09663 | 33635 ft | 402 kts | 262° |
| 2026-04-28 09:50 | 52.79712 | 91.04993 | 33793 ft | 401 kts | 262° |
| 2026-04-28 09:50 | 52.79555 | 91.00388 | 33936 ft | 401 kts | 262° |
| 2026-04-28 09:50 | 52.79393 | 90.95704 | 34045 ft | 402 kts | 262° |
| 2026-04-28 09:51 | 52.79062 | 90.86374 | 34051 ft | 405 kts | 262° |
| 2026-04-28 09:51 | 52.78732 | 90.77209 | 33874 ft | 406 kts | 263° |
| 2026-04-28 09:52 | 52.78388 | 90.67789 | 34003 ft | 408 kts | 263° |
| 2026-04-28 09:52 | 52.78216 | 90.63103 | 34176 ft | 406 kts | 263° |
| 2026-04-28 09:52 | 52.78041 | 90.58431 | 34314 ft | 406 kts | 263° |
| 2026-04-28 09:53 | 52.77862 | 90.53732 | 34450 ft | 406 kts | 263° |
| 2026-04-28 09:53 | 52.77681 | 90.49052 | 34578 ft | 407 kts | 263° |
| 2026-04-28 09:53 | 52.77511 | 90.44666 | 34692 ft | 406 kts | 263° |
| 2026-04-28 09:53 | 52.77328 | 90.39995 | 34793 ft | 407 kts | 263° |
| 2026-04-28 09:54 | 52.76953 | 90.30550 | 35011 ft | 407 kts | 263° |
| 2026-04-28 09:54 | 52.76765 | 90.25877 | 35136 ft | 407 kts | 263° |
| 2026-04-28 09:54 | 52.76575 | 90.21191 | 35250 ft | 408 kts | 263° |
| 2026-04-28 09:55 | 52.76188 | 90.11782 | 35436 ft | 409 kts | 263° |
| 2026-04-28 09:55 | 52.75792 | 90.02303 | 35611 ft | 410 kts | 263° |
| 2026-04-28 09:56 | 52.75384 | 89.92840 | 35782 ft | 410 kts | 264° |
| 2026-04-28 09:56 | 52.74985 | 89.83438 | 36047 ft | 408 kts | 264° |
| 2026-04-28 09:57 | 52.74782 | 89.78775 | 36258 ft | 404 kts | 264° |
| 2026-04-28 09:57 | 52.74565 | 89.74088 | 36485 ft | 399 kts | 264° |
| 2026-04-28 09:57 | 52.74151 | 89.64930 | 36568 ft | 403 kts | 264° |
| 2026-04-28 09:58 | 52.73720 | 89.55544 | 36613 ft | 408 kts | 264° |
| 2026-04-28 09:58 | 52.73277 | 89.46072 | 36637 ft | 413 kts | 265° |
| 2026-04-28 09:59 | 52.72823 | 89.36517 | 36640 ft | 418 kts | 265° |
| 2026-04-28 09:59 | 52.72357 | 89.26898 | 36714 ft | 421 kts | 264° |
| 2026-04-28 10:00 | 52.71879 | 89.17187 | 36862 ft | 421 kts | 264° |
| 2026-04-28 10:00 | 52.71393 | 89.07493 | 36988 ft | 421 kts | 264° |
| 2026-04-28 10:01 | 52.70894 | 88.97761 | 37089 ft | 422 kts | 264° |
| 2026-04-28 10:01 | 52.70388 | 88.88018 | 37182 ft | 423 kts | 264° |
| 2026-04-28 10:02 | 52.69872 | 88.78286 | 37290 ft | 424 kts | 264° |
| 2026-04-28 10:02 | 52.69342 | 88.68465 | 37392 ft | 425 kts | 264° |
| 2026-04-28 10:03 | 52.68806 | 88.58712 | 37496 ft | 426 kts | 265° |
| 2026-04-28 10:03 | 52.68263 | 88.48952 | 37597 ft | 426 kts | 265° |
| 2026-04-28 10:04 | 52.67710 | 88.39150 | 37693 ft | 427 kts | 265° |
| 2026-04-28 10:04 | 52.67146 | 88.29303 | 37791 ft | 428 kts | 264° |
| 2026-04-28 10:05 | 52.66575 | 88.19482 | 37905 ft | 428 kts | 264° |
| 2026-04-28 10:05 | 52.65998 | 88.09684 | 38016 ft | 428 kts | 264° |
| 2026-04-28 10:06 | 52.65409 | 87.99832 | 38108 ft | 429 kts | 264° |
| 2026-04-28 10:06 | 52.64809 | 87.89950 | 38187 ft | 429 kts | 264° |
| 2026-04-28 10:07 | 52.64203 | 87.80118 | 38260 ft | 430 kts | 265° |
| 2026-04-28 10:07 | 52.63587 | 87.70232 | 38325 ft | 431 kts | 265° |
| 2026-04-28 10:08 | 52.62960 | 87.60297 | 38326 ft | 431 kts | 265° |
| 2026-04-28 10:08 | 52.62329 | 87.50433 | 38325 ft | 431 kts | 265° |
| 2026-04-28 10:09 | 52.61686 | 87.40524 | 38325 ft | 432 kts | 265° |
| 2026-04-28 10:09 | 52.61039 | 87.30694 | 38327 ft | 431 kts | 264° |
| 2026-04-28 10:10 | 52.60380 | 87.20790 | 38328 ft | 431 kts | 264° |
| 2026-04-28 10:10 | 52.59714 | 87.10922 | 38331 ft | 431 kts | 264° |
| 2026-04-28 10:11 | 52.59045 | 87.01115 | 38337 ft | 431 kts | 264° |
| 2026-04-28 10:11 | 52.58363 | 86.91262 | 38344 ft | 431 kts | 264° |
| 2026-04-28 10:12 | 52.57677 | 86.81448 | 38348 ft | 431 kts | 264° |
| 2026-04-28 10:12 | 52.56976 | 86.71547 | 38352 ft | 431 kts | 264° |
| 2026-04-28 10:13 | 52.56273 | 86.61755 | 38355 ft | 431 kts | 265° |
| 2026-04-28 10:13 | 52.55559 | 86.51907 | 38357 ft | 430 kts | 265° |
| 2026-04-28 10:14 | 52.54842 | 86.42135 | 38358 ft | 430 kts | 265° |
| 2026-04-28 10:14 | 52.54114 | 86.32329 | 38361 ft | 429 kts | 264° |
| 2026-04-28 10:15 | 52.53376 | 86.22501 | 38363 ft | 429 kts | 264° |
| 2026-04-28 10:15 | 52.52638 | 86.12777 | 38362 ft | 428 kts | 264° |
| 2026-04-28 10:16 | 52.51884 | 86.02972 | 38365 ft | 428 kts | 264° |
| 2026-04-28 10:16 | 52.51125 | 85.93201 | 38365 ft | 427 kts | 264° |
| 2026-04-28 10:17 | 52.50365 | 85.83525 | 38366 ft | 427 kts | 264° |
| 2026-04-28 10:17 | 52.49596 | 85.73820 | 38364 ft | 427 kts | 264° |
| 2026-04-28 10:18 | 52.48815 | 85.64078 | 38363 ft | 427 kts | 264° |
| 2026-04-28 10:18 | 52.48027 | 85.54340 | 38359 ft | 428 kts | 264° |
| 2026-04-28 10:19 | 52.47235 | 85.44661 | 38357 ft | 428 kts | 264° |
| 2026-04-28 10:19 | 52.46439 | 85.34917 | 38356 ft | 429 kts | 264° |
| 2026-04-28 10:20 | 52.45686 | 85.25149 | 38356 ft | 429 kts | 264° |
| 2026-04-28 10:20 | 52.44931 | 85.15425 | 38356 ft | 430 kts | 264° |
| 2026-04-28 10:21 | 52.44165 | 85.05703 | 38355 ft | 430 kts | 264° |
| 2026-04-28 10:21 | 52.43391 | 84.95974 | 38357 ft | 430 kts | 264° |
| 2026-04-28 10:22 | 52.42605 | 84.86215 | 38358 ft | 431 kts | 264° |
| 2026-04-28 10:22 | 52.41808 | 84.76427 | 38361 ft | 431 kts | 264° |
| 2026-04-28 10:23 | 52.41006 | 84.66682 | 38362 ft | 431 kts | 264° |
| 2026-04-28 10:23 | 52.40196 | 84.56952 | 38365 ft | 431 kts | 264° |
| 2026-04-28 10:24 | 52.39373 | 84.47175 | 38367 ft | 431 kts | 264° |
| 2026-04-28 10:24 | 52.38548 | 84.37461 | 38369 ft | 431 kts | 264° |
| 2026-04-28 10:25 | 52.37710 | 84.27696 | 38370 ft | 431 kts | 263° |
| 2026-04-28 10:25 | 52.36866 | 84.17947 | 38370 ft | 431 kts | 263° |
| 2026-04-28 10:26 | 52.36012 | 84.08184 | 38371 ft | 430 kts | 263° |
| 2026-04-28 10:26 | 52.35151 | 83.98442 | 38369 ft | 430 kts | 263° |
| 2026-04-28 10:27 | 52.34284 | 83.88747 | 38368 ft | 430 kts | 263° |
| 2026-04-28 10:27 | 52.33415 | 83.79099 | 38367 ft | 430 kts | 263° |
| 2026-04-28 10:28 | 52.32527 | 83.69317 | 38368 ft | 430 kts | 263° |
| 2026-04-28 10:29 | 52.31193 | 83.54799 | 38359 ft | 430 kts | 263° |
| 2026-04-28 10:29 | 52.30281 | 83.45056 | 38358 ft | 430 kts | 264° |
| 2026-04-28 10:30 | 52.29386 | 83.35425 | 38362 ft | 431 kts | 264° |
| 2026-04-28 10:30 | 52.28466 | 83.25683 | 38365 ft | 432 kts | 263° |
| 2026-04-28 10:31 | 52.27539 | 83.15976 | 38366 ft | 432 kts | 263° |
| 2026-04-28 10:31 | 52.26609 | 83.06400 | 38369 ft | 433 kts | 263° |
| 2026-04-28 10:32 | 52.25656 | 82.96583 | 38370 ft | 434 kts | 263° |
| 2026-04-28 10:32 | 52.24691 | 82.86781 | 38371 ft | 435 kts | 263° |
| 2026-04-28 10:33 | 52.23708 | 82.76862 | 38373 ft | 436 kts | 263° |
| 2026-04-28 10:33 | 52.22728 | 82.67058 | 38371 ft | 436 kts | 263° |
| 2026-04-28 10:34 | 52.21735 | 82.57228 | 38371 ft | 437 kts | 263° |
| 2026-04-28 10:34 | 52.20739 | 82.47413 | 38370 ft | 437 kts | 263° |
| 2026-04-28 10:35 | 52.19734 | 82.37591 | 38364 ft | 437 kts | 263° |
| 2026-04-28 10:35 | 52.18720 | 82.27712 | 38358 ft | 437 kts | 262° |
| 2026-04-28 10:36 | 52.17699 | 82.17924 | 38351 ft | 437 kts | 262° |
| 2026-04-28 10:36 | 52.16663 | 82.08151 | 38342 ft | 437 kts | 262° |
| 2026-04-28 10:37 | 52.15615 | 81.98292 | 38338 ft | 437 kts | 262° |
| 2026-04-28 10:37 | 52.14561 | 81.88389 | 38332 ft | 437 kts | 262° |
| 2026-04-28 10:38 | 52.13508 | 81.78583 | 38324 ft | 437 kts | 262° |
| 2026-04-28 10:38 | 52.12433 | 81.68766 | 38322 ft | 437 kts | 262° |
| 2026-04-28 10:39 | 52.11365 | 81.58993 | 38317 ft | 437 kts | 262° |
| 2026-04-28 10:39 | 52.10296 | 81.49242 | 38316 ft | 437 kts | 262° |
| 2026-04-28 10:40 | 52.09202 | 81.39406 | 38315 ft | 437 kts | 262° |
| 2026-04-28 10:40 | 52.08079 | 81.29544 | 38316 ft | 437 kts | 262° |
| 2026-04-28 10:41 | 52.07015 | 81.20071 | 38314 ft | 437 kts | 262° |
| 2026-04-28 10:41 | 52.05909 | 81.10390 | 38313 ft | 437 kts | 262° |
| 2026-04-28 10:42 | 52.04783 | 81.00538 | 38314 ft | 437 kts | 262° |
| 2026-04-28 10:42 | 52.03642 | 80.90711 | 38313 ft | 437 kts | 262° |
| 2026-04-28 10:43 | 52.02506 | 80.80941 | 38311 ft | 437 kts | 262° |
| 2026-04-28 10:43 | 52.01354 | 80.71213 | 38315 ft | 438 kts | 263° |
| 2026-04-28 10:44 | 52.00211 | 80.61452 | 38311 ft | 438 kts | 262° |
| 2026-04-28 10:44 | 51.99049 | 80.51723 | 38321 ft | 438 kts | 262° |
| 2026-04-28 10:45 | 51.97877 | 80.42001 | 38324 ft | 438 kts | 262° |
| 2026-04-28 10:45 | 51.96704 | 80.32322 | 38311 ft | 438 kts | 262° |
| 2026-04-28 10:46 | 51.95520 | 80.22622 | 38304 ft | 438 kts | 262° |
| 2026-04-28 10:46 | 51.94324 | 80.12888 | 38305 ft | 438 kts | 262° |
| 2026-04-28 10:47 | 51.93120 | 80.03153 | 38313 ft | 438 kts | 262° |
| 2026-04-28 10:47 | 51.91913 | 79.93458 | 38323 ft | 438 kts | 262° |
| 2026-04-28 10:48 | 51.90698 | 79.83773 | 38326 ft | 437 kts | 262° |
| 2026-04-28 10:48 | 51.89466 | 79.74015 | 38331 ft | 438 kts | 262° |
| 2026-04-28 10:49 | 51.88237 | 79.64349 | 38335 ft | 438 kts | 262° |
| 2026-04-28 10:49 | 51.86989 | 79.54603 | 38343 ft | 438 kts | 262° |
| 2026-04-28 10:50 | 51.85733 | 79.44849 | 38346 ft | 438 kts | 262° |
| 2026-04-28 10:50 | 51.84474 | 79.35166 | 38354 ft | 438 kts | 262° |
| 2026-04-28 10:51 | 51.83327 | 79.25436 | 38357 ft | 436 kts | 265° |
| 2026-04-28 10:51 | 51.82735 | 79.15647 | 38363 ft | 434 kts | 269° |
| 2026-04-28 10:52 | 51.82307 | 79.05866 | 38364 ft | 434 kts | 269° |
| 2026-04-28 10:52 | 51.81873 | 78.96075 | 38366 ft | 434 kts | 269° |
| 2026-04-28 10:53 | 51.81428 | 78.86247 | 38369 ft | 434 kts | 269° |
| 2026-04-28 10:53 | 51.80974 | 78.76413 | 38376 ft | 435 kts | 268° |
| 2026-04-28 10:54 | 51.80518 | 78.66698 | 38380 ft | 435 kts | 268° |
| 2026-04-28 10:54 | 51.80047 | 78.56887 | 38379 ft | 435 kts | 268° |
| 2026-04-28 10:55 | 51.79568 | 78.47065 | 38379 ft | 434 kts | 269° |
| 2026-04-28 10:55 | 51.79084 | 78.37277 | 38375 ft | 434 kts | 269° |
| 2026-04-28 10:56 | 51.78592 | 78.27514 | 38375 ft | 434 kts | 268° |
| 2026-04-28 10:56 | 51.78092 | 78.17731 | 38369 ft | 434 kts | 268° |
| 2026-04-28 10:57 | 51.77584 | 78.07949 | 38369 ft | 434 kts | 268° |
| 2026-04-28 10:57 | 51.77067 | 77.98148 | 38364 ft | 433 kts | 268° |
| 2026-04-28 10:58 | 51.76544 | 77.88423 | 38364 ft | 433 kts | 268° |
| 2026-04-28 10:58 | 51.76013 | 77.78732 | 38365 ft | 433 kts | 268° |
| 2026-04-28 10:59 | 51.75464 | 77.68886 | 38366 ft | 434 kts | 268° |
| 2026-04-28 10:59 | 51.74912 | 77.59127 | 38365 ft | 434 kts | 268° |
| 2026-04-28 11:00 | 51.74354 | 77.49365 | 38365 ft | 434 kts | 268° |
| 2026-04-28 11:00 | 51.73788 | 77.39580 | 38368 ft | 434 kts | 268° |
| 2026-04-28 11:01 | 51.73217 | 77.29876 | 38370 ft | 435 kts | 267° |
| 2026-04-28 11:01 | 51.72633 | 77.20135 | 38373 ft | 435 kts | 267° |
| 2026-04-28 11:02 | 51.72039 | 77.10346 | 38374 ft | 436 kts | 266° |
| 2026-04-28 11:02 | 51.71442 | 77.00663 | 38376 ft | 436 kts | 266° |
| 2026-04-28 11:03 | 51.70832 | 76.90898 | 38377 ft | 437 kts | 266° |
| 2026-04-28 11:03 | 51.70207 | 76.81082 | 38378 ft | 437 kts | 266° |
| 2026-04-28 11:04 | 51.69578 | 76.71320 | 38378 ft | 437 kts | 266° |
| 2026-04-28 11:04 | 51.68941 | 76.61520 | 38378 ft | 437 kts | 266° |
| 2026-04-28 11:05 | 51.68300 | 76.51779 | 38378 ft | 437 kts | 266° |
| 2026-04-28 11:05 | 51.67651 | 76.42047 | 38376 ft | 437 kts | 266° |
| 2026-04-28 11:06 | 51.66991 | 76.32260 | 38375 ft | 437 kts | 265° |
| 2026-04-28 11:06 | 51.66325 | 76.22521 | 38372 ft | 437 kts | 265° |
| 2026-04-28 11:07 | 51.65646 | 76.12702 | 38370 ft | 437 kts | 265° |
| 2026-04-28 11:07 | 51.64964 | 76.02950 | 38367 ft | 437 kts | 265° |
| 2026-04-28 11:08 | 51.64274 | 75.93206 | 38366 ft | 437 kts | 265° |
| 2026-04-28 11:08 | 51.63573 | 75.83444 | 38365 ft | 437 kts | 265° |
| 2026-04-28 11:09 | 51.62868 | 75.73708 | 38363 ft | 438 kts | 265° |
| 2026-04-28 11:09 | 51.62154 | 75.63961 | 38358 ft | 438 kts | 265° |
| 2026-04-28 11:10 | 51.61432 | 75.54224 | 38355 ft | 438 kts | 265° |
| 2026-04-28 11:10 | 51.60701 | 75.44466 | 38353 ft | 438 kts | 265° |
| 2026-04-28 11:11 | 51.59958 | 75.34677 | 38352 ft | 438 kts | 264° |
| 2026-04-28 11:11 | 51.59202 | 75.24949 | 38352 ft | 439 kts | 263° |
| 2026-04-28 11:12 | 51.58042 | 75.15225 | 38352 ft | 440 kts | 259° |
| 2026-04-28 11:12 | 51.56710 | 75.05646 | 38352 ft | 441 kts | 259° |
| 2026-04-28 11:13 | 51.55365 | 74.96027 | 38352 ft | 441 kts | 259° |
| 2026-04-28 11:13 | 51.54013 | 74.86402 | 38350 ft | 441 kts | 259° |
| 2026-04-28 11:14 | 51.52652 | 74.76765 | 38347 ft | 441 kts | 259° |
| 2026-04-28 11:14 | 51.51284 | 74.67140 | 38345 ft | 441 kts | 259° |
| 2026-04-28 11:15 | 51.49908 | 74.57501 | 38343 ft | 441 kts | 259° |
| 2026-04-28 11:15 | 51.48534 | 74.47943 | 38334 ft | 441 kts | 259° |
| 2026-04-28 11:16 | 51.47134 | 74.38277 | 38320 ft | 441 kts | 259° |
| 2026-04-28 11:16 | 51.45732 | 74.28657 | 38311 ft | 441 kts | 258° |
| 2026-04-28 11:17 | 51.44325 | 74.19064 | 38306 ft | 441 kts | 258° |
| 2026-04-28 11:17 | 51.42916 | 74.09510 | 38303 ft | 441 kts | 258° |
| 2026-04-28 11:18 | 51.41485 | 73.99873 | 38300 ft | 441 kts | 258° |
| 2026-04-28 11:18 | 51.40059 | 73.90329 | 38297 ft | 441 kts | 258° |
| 2026-04-28 11:19 | 51.38618 | 73.80738 | 38293 ft | 441 kts | 258° |
| 2026-04-28 11:19 | 51.37171 | 73.71164 | 38289 ft | 441 kts | 258° |
| 2026-04-28 11:20 | 51.35710 | 73.61556 | 38285 ft | 441 kts | 258° |
| 2026-04-28 11:20 | 51.34256 | 73.52052 | 38282 ft | 441 kts | 258° |
| 2026-04-28 11:21 | 51.32790 | 73.42529 | 38281 ft | 441 kts | 258° |
| 2026-04-28 11:21 | 51.31318 | 73.33016 | 38283 ft | 441 kts | 257° |
| 2026-04-28 11:22 | 51.29975 | 73.24387 | 38287 ft | 441 kts | 257° |
| 2026-04-28 11:22 | 51.28479 | 73.14818 | 38287 ft | 441 kts | 257° |
| 2026-04-28 11:23 | 51.26973 | 73.05244 | 38284 ft | 441 kts | 257° |
| 2026-04-28 11:23 | 51.25457 | 72.95679 | 38281 ft | 441 kts | 257° |
| 2026-04-28 11:24 | 51.23927 | 72.86092 | 38279 ft | 441 kts | 257° |
| 2026-04-28 11:24 | 51.22390 | 72.76519 | 38281 ft | 441 kts | 257° |
| 2026-04-28 11:25 | 51.20842 | 72.66919 | 38286 ft | 441 kts | 257° |
| 2026-04-28 11:25 | 51.19295 | 72.57379 | 38289 ft | 441 kts | 257° |
| 2026-04-28 11:26 | 51.17743 | 72.47857 | 38291 ft | 441 kts | 257° |
| 2026-04-28 11:26 | 51.16191 | 72.38388 | 38291 ft | 440 kts | 257° |
| 2026-04-28 11:27 | 51.14622 | 72.28870 | 38290 ft | 440 kts | 256° |
| 2026-04-28 11:27 | 51.13083 | 72.19584 | 38289 ft | 440 kts | 256° |
| 2026-04-28 11:28 | 51.11514 | 72.10169 | 38288 ft | 440 kts | 256° |
| 2026-04-28 11:28 | 51.09932 | 72.00724 | 38288 ft | 440 kts | 256° |
| 2026-04-28 11:29 | 51.08332 | 71.91226 | 38294 ft | 440 kts | 256° |
| 2026-04-28 11:29 | 51.06731 | 71.81773 | 38300 ft | 439 kts | 256° |
| 2026-04-28 11:30 | 51.05122 | 71.72321 | 38295 ft | 439 kts | 256° |
| 2026-04-28 11:30 | 51.02706 | 71.58230 | 38289 ft | 438 kts | 256° |
| 2026-04-28 11:31 | 51.01090 | 71.48872 | 38289 ft | 438 kts | 256° |
| 2026-04-28 11:31 | 50.99175 | 71.39621 | 38288 ft | 438 kts | 250° |
| 2026-04-28 11:32 | 50.96887 | 71.30584 | 38291 ft | 439 kts | 249° |
| 2026-04-28 11:32 | 50.94598 | 71.21581 | 38291 ft | 439 kts | 249° |
| 2026-04-28 11:33 | 50.92293 | 71.12554 | 38293 ft | 439 kts | 249° |
| 2026-04-28 11:33 | 50.89991 | 71.03566 | 38293 ft | 438 kts | 249° |
| 2026-04-28 11:34 | 50.87674 | 70.94563 | 38295 ft | 438 kts | 249° |
| 2026-04-28 11:34 | 50.85364 | 70.85619 | 38294 ft | 438 kts | 249° |
| 2026-04-28 11:35 | 50.83036 | 70.76646 | 38294 ft | 438 kts | 249° |
| 2026-04-28 11:35 | 50.80708 | 70.67700 | 38293 ft | 438 kts | 249° |
| 2026-04-28 11:36 | 50.78379 | 70.58794 | 38292 ft | 437 kts | 249° |
| 2026-04-28 11:36 | 50.76041 | 70.49885 | 38291 ft | 437 kts | 249° |
| 2026-04-28 11:37 | 50.73705 | 70.41013 | 38290 ft | 436 kts | 249° |
| 2026-04-28 11:37 | 50.71366 | 70.32169 | 38289 ft | 436 kts | 249° |
| 2026-04-28 11:38 | 50.69022 | 70.23338 | 38287 ft | 436 kts | 249° |
| 2026-04-28 11:38 | 50.66896 | 70.14339 | 38285 ft | 435 kts | 251° |
| 2026-04-28 11:39 | 50.64841 | 70.05355 | 38283 ft | 435 kts | 252° |
| 2026-04-28 11:39 | 50.62767 | 69.96315 | 38283 ft | 435 kts | 252° |
| 2026-04-28 11:40 | 50.60709 | 69.87385 | 38289 ft | 434 kts | 252° |
| 2026-04-28 11:40 | 50.58629 | 69.78396 | 38286 ft | 433 kts | 252° |
| 2026-04-28 11:41 | 50.56558 | 69.69481 | 38274 ft | 432 kts | 252° |
| 2026-04-28 11:41 | 50.54470 | 69.60536 | 38271 ft | 432 kts | 252° |
| 2026-04-28 11:42 | 50.52387 | 69.51642 | 38269 ft | 432 kts | 252° |
| 2026-04-28 11:42 | 50.50285 | 69.42705 | 38268 ft | 432 kts | 252° |
| 2026-04-28 11:43 | 50.48189 | 69.33827 | 38267 ft | 432 kts | 251° |
| 2026-04-28 11:43 | 50.46091 | 69.24991 | 38264 ft | 432 kts | 251° |
| 2026-04-28 11:44 | 50.43981 | 69.16145 | 38262 ft | 432 kts | 251° |
| 2026-04-28 11:44 | 50.41846 | 69.07233 | 38260 ft | 432 kts | 251° |
| 2026-04-28 11:45 | 50.39732 | 68.98439 | 38255 ft | 432 kts | 251° |
| 2026-04-28 11:45 | 50.37580 | 68.89522 | 38250 ft | 432 kts | 251° |
| 2026-04-28 11:46 | 50.35443 | 68.80699 | 38246 ft | 432 kts | 251° |
| 2026-04-28 11:46 | 50.33300 | 68.71890 | 38244 ft | 431 kts | 251° |
| 2026-04-28 11:47 | 50.31316 | 68.63763 | 38242 ft | 431 kts | 250° |
| 2026-04-28 11:47 | 50.29160 | 68.54967 | 38239 ft | 431 kts | 250° |
| 2026-04-28 11:48 | 50.27005 | 68.46202 | 38237 ft | 431 kts | 250° |
| 2026-04-28 11:48 | 50.24838 | 68.37429 | 38235 ft | 431 kts | 250° |
| 2026-04-28 11:49 | 50.22670 | 68.28661 | 38233 ft | 431 kts | 251° |
| 2026-04-28 11:49 | 50.20714 | 68.19768 | 38231 ft | 431 kts | 252° |
| 2026-04-28 11:50 | 50.18780 | 68.10876 | 38229 ft | 431 kts | 252° |
| 2026-04-28 11:50 | 50.16840 | 68.01985 | 38227 ft | 431 kts | 252° |
| 2026-04-28 11:51 | 50.14896 | 67.93116 | 38220 ft | 431 kts | 252° |
| 2026-04-28 11:51 | 50.12938 | 67.84213 | 38212 ft | 431 kts | 252° |
| 2026-04-28 11:52 | 50.10987 | 67.75383 | 38208 ft | 431 kts | 252° |
| 2026-04-28 11:52 | 50.09013 | 67.66487 | 38204 ft | 430 kts | 252° |
| 2026-04-28 11:53 | 50.07055 | 67.57701 | 38195 ft | 431 kts | 252° |
| 2026-04-28 11:53 | 50.05077 | 67.48865 | 38180 ft | 431 kts | 252° |
| 2026-04-28 11:54 | 50.03104 | 67.40080 | 38172 ft | 430 kts | 252° |
| 2026-04-28 11:54 | 50.01125 | 67.31305 | 38169 ft | 430 kts | 251° |
| 2026-04-28 11:55 | 49.99191 | 67.22766 | 38166 ft | 430 kts | 251° |
| 2026-04-28 11:55 | 49.97176 | 67.13969 | 38165 ft | 430 kts | 250° |
| 2026-04-28 11:56 | 49.94834 | 67.05386 | 38165 ft | 430 kts | 248° |
| 2026-04-28 11:56 | 49.92426 | 66.96880 | 38165 ft | 429 kts | 248° |
| 2026-04-28 11:57 | 49.89988 | 66.88292 | 38164 ft | 429 kts | 248° |
| 2026-04-28 11:57 | 49.87576 | 66.79828 | 38163 ft | 429 kts | 248° |
| 2026-04-28 11:58 | 49.85157 | 66.71364 | 38162 ft | 429 kts | 248° |
| 2026-04-28 11:58 | 49.82734 | 66.62913 | 38160 ft | 429 kts | 248° |
| 2026-04-28 11:59 | 49.80313 | 66.54494 | 38157 ft | 428 kts | 248° |
| 2026-04-28 11:59 | 49.77875 | 66.46046 | 38154 ft | 428 kts | 248° |
| 2026-04-28 12:00 | 49.75440 | 66.37641 | 38152 ft | 428 kts | 248° |
| 2026-04-28 12:00 | 49.72994 | 66.29151 | 38150 ft | 428 kts | 248° |
| 2026-04-28 12:01 | 49.70618 | 66.20704 | 38148 ft | 428 kts | 248° |
| 2026-04-28 12:01 | 49.68233 | 66.12247 | 38147 ft | 428 kts | 248° |
| 2026-04-28 12:02 | 49.65839 | 66.03800 | 38147 ft | 428 kts | 248° |
| 2026-04-28 12:02 | 49.63433 | 65.95343 | 38148 ft | 428 kts | 248° |
| 2026-04-28 12:03 | 49.61043 | 65.86970 | 38148 ft | 428 kts | 248° |
| 2026-04-28 12:03 | 49.58642 | 65.78593 | 38149 ft | 428 kts | 248° |
| 2026-04-28 12:04 | 49.56231 | 65.70206 | 38149 ft | 427 kts | 248° |
| 2026-04-28 12:04 | 49.53802 | 65.61788 | 38148 ft | 427 kts | 248° |
| 2026-04-28 12:05 | 49.51381 | 65.53428 | 38146 ft | 427 kts | 248° |
| 2026-04-28 12:05 | 49.48952 | 65.45066 | 38145 ft | 427 kts | 248° |
| 2026-04-28 12:06 | 49.46536 | 65.36784 | 38149 ft | 426 kts | 248° |
| 2026-04-28 12:06 | 49.44090 | 65.28426 | 38156 ft | 426 kts | 246° |
| 2026-04-28 12:07 | 49.41654 | 65.20122 | 38157 ft | 425 kts | 246° |
| 2026-04-28 12:07 | 49.39375 | 65.12378 | 38157 ft | 425 kts | 246° |
| 2026-04-28 12:08 | 49.36921 | 65.04067 | 38156 ft | 425 kts | 246° |
| 2026-04-28 12:08 | 49.34446 | 64.95727 | 38154 ft | 425 kts | 246° |
| 2026-04-28 12:09 | 49.31868 | 64.87580 | 38154 ft | 424 kts | 245° |
| 2026-04-28 12:09 | 49.29253 | 64.79455 | 38153 ft | 424 kts | 245° |
| 2026-04-28 12:10 | 49.26642 | 64.71333 | 38152 ft | 424 kts | 245° |
| 2026-04-28 12:10 | 49.24021 | 64.63190 | 38151 ft | 423 kts | 245° |
| 2026-04-28 12:11 | 49.21394 | 64.55048 | 38150 ft | 423 kts | 245° |
| 2026-04-28 12:11 | 49.18781 | 64.46972 | 38150 ft | 422 kts | 245° |
| 2026-04-28 12:12 | 49.16182 | 64.38959 | 38149 ft | 422 kts | 245° |
| 2026-04-28 12:12 | 49.13555 | 64.30888 | 38148 ft | 422 kts | 244° |
| 2026-04-28 12:13 | 49.10949 | 64.22904 | 38150 ft | 423 kts | 244° |
| 2026-04-28 12:13 | 49.08308 | 64.14844 | 38155 ft | 423 kts | 244° |
| 2026-04-28 12:14 | 49.05661 | 64.06787 | 38160 ft | 423 kts | 244° |
| 2026-04-28 12:14 | 49.03033 | 63.98812 | 38164 ft | 422 kts | 244° |
| 2026-04-28 12:15 | 49.00390 | 63.90818 | 38165 ft | 422 kts | 244° |
| 2026-04-28 12:15 | 48.97724 | 63.82778 | 38168 ft | 422 kts | 244° |
| 2026-04-28 12:16 | 48.95080 | 63.74825 | 38171 ft | 421 kts | 243° |
| 2026-04-28 12:16 | 48.92423 | 63.66859 | 38168 ft | 421 kts | 243° |
| 2026-04-28 12:17 | 48.89762 | 63.58921 | 38165 ft | 421 kts | 243° |
| 2026-04-28 12:17 | 48.87235 | 63.50944 | 38165 ft | 421 kts | 246° |
| 2026-04-28 12:18 | 48.84851 | 63.42794 | 38164 ft | 420 kts | 246° |
| 2026-04-28 12:18 | 48.82472 | 63.34680 | 38163 ft | 421 kts | 245° |
| 2026-04-28 12:19 | 48.80078 | 63.26540 | 38151 ft | 420 kts | 245° |
| 2026-04-28 12:19 | 48.77685 | 63.18419 | 38137 ft | 420 kts | 245° |
| 2026-04-28 12:20 | 48.75259 | 63.10216 | 38132 ft | 420 kts | 245° |
| 2026-04-28 12:20 | 48.72863 | 63.02139 | 38144 ft | 420 kts | 245° |
| 2026-04-28 12:21 | 48.70458 | 62.94054 | 38140 ft | 420 kts | 245° |
| 2026-04-28 12:21 | 48.68042 | 62.85962 | 38107 ft | 420 kts | 244° |
| 2026-04-28 12:22 | 48.65631 | 62.77918 | 38090 ft | 420 kts | 244° |
| 2026-04-28 12:22 | 48.63206 | 62.69862 | 38088 ft | 420 kts | 244° |
| 2026-04-28 12:23 | 48.60665 | 62.61890 | 38087 ft | 420 kts | 242° |
| 2026-04-28 12:23 | 48.58046 | 62.54047 | 38088 ft | 419 kts | 242° |
| 2026-04-28 12:24 | 48.55412 | 62.46148 | 38088 ft | 419 kts | 242° |
| 2026-04-28 12:24 | 48.52785 | 62.38266 | 38087 ft | 420 kts | 242° |
| 2026-04-28 12:25 | 48.50162 | 62.30411 | 38086 ft | 420 kts | 242° |
| 2026-04-28 12:25 | 48.47523 | 62.22527 | 38086 ft | 421 kts | 242° |
| 2026-04-28 12:26 | 48.44868 | 62.14614 | 38085 ft | 421 kts | 242° |
| 2026-04-28 12:26 | 48.42223 | 62.06760 | 38085 ft | 422 kts | 242° |
| 2026-04-28 12:27 | 48.39567 | 61.98893 | 38085 ft | 422 kts | 242° |
| 2026-04-28 12:27 | 48.36903 | 61.91026 | 38083 ft | 421 kts | 242° |
| 2026-04-28 12:28 | 48.34235 | 61.83173 | 38083 ft | 421 kts | 242° |
| 2026-04-28 12:28 | 48.31565 | 61.75338 | 38085 ft | 421 kts | 242° |
| 2026-04-28 12:29 | 48.27557 | 61.63621 | 38087 ft | 421 kts | 242° |
| 2026-04-28 12:30 | 48.24858 | 61.55760 | 38086 ft | 421 kts | 242° |
| 2026-04-28 12:30 | 48.22173 | 61.47963 | 38085 ft | 421 kts | 242° |
| 2026-04-28 12:31 | 48.19483 | 61.40178 | 38084 ft | 421 kts | 242° |
| 2026-04-28 12:31 | 48.16772 | 61.32355 | 38083 ft | 420 kts | 240° |
| 2026-04-28 12:32 | 48.14084 | 61.24617 | 38081 ft | 420 kts | 240° |
| 2026-04-28 12:32 | 48.11379 | 61.16855 | 38081 ft | 420 kts | 240° |
| 2026-04-28 12:33 | 48.08680 | 61.09137 | 38081 ft | 419 kts | 240° |
| 2026-04-28 12:33 | 48.05982 | 61.01441 | 38081 ft | 419 kts | 240° |
| 2026-04-28 12:34 | 48.03272 | 60.93733 | 38080 ft | 419 kts | 240° |
| 2026-04-28 12:34 | 48.00555 | 60.86029 | 38080 ft | 418 kts | 240° |
| 2026-04-28 12:35 | 47.97836 | 60.78342 | 38078 ft | 418 kts | 240° |
| 2026-04-28 12:35 | 47.95101 | 60.70634 | 38071 ft | 419 kts | 240° |
| 2026-04-28 12:36 | 47.92366 | 60.62948 | 38062 ft | 419 kts | 240° |
| 2026-04-28 12:36 | 47.89623 | 60.55262 | 38066 ft | 420 kts | 240° |
| 2026-04-28 12:37 | 47.86873 | 60.47575 | 38078 ft | 420 kts | 240° |
| 2026-04-28 12:37 | 47.84107 | 60.39866 | 38082 ft | 420 kts | 240° |
| 2026-04-28 12:38 | 47.81333 | 60.32159 | 38084 ft | 419 kts | 239° |
| 2026-04-28 12:38 | 47.78578 | 60.24519 | 38084 ft | 419 kts | 239° |
| 2026-04-28 12:39 | 47.75811 | 60.16877 | 38084 ft | 419 kts | 239° |
| 2026-04-28 12:39 | 47.73026 | 60.09215 | 38084 ft | 419 kts | 239° |
| 2026-04-28 12:40 | 47.70246 | 60.01602 | 38083 ft | 419 kts | 239° |
| 2026-04-28 12:40 | 47.67468 | 59.94008 | 38082 ft | 419 kts | 239° |
| 2026-04-28 12:41 | 47.64664 | 59.86363 | 38081 ft | 419 kts | 239° |
| 2026-04-28 12:41 | 47.61859 | 59.78736 | 38081 ft | 419 kts | 239° |
| 2026-04-28 12:42 | 47.59079 | 59.71193 | 38090 ft | 419 kts | 239° |
| 2026-04-28 12:42 | 47.56275 | 59.63611 | 38102 ft | 419 kts | 239° |
| 2026-04-28 12:43 | 47.53459 | 59.56016 | 38110 ft | 419 kts | 239° |
| 2026-04-28 12:43 | 47.50645 | 59.48449 | 38116 ft | 419 kts | 239° |
| 2026-04-28 12:44 | 47.47825 | 59.40884 | 38122 ft | 419 kts | 239° |
| 2026-04-28 12:44 | 47.45016 | 59.33373 | 38127 ft | 419 kts | 239° |
| 2026-04-28 12:45 | 47.42184 | 59.25820 | 38128 ft | 419 kts | 239° |
| 2026-04-28 12:45 | 47.39366 | 59.18326 | 38129 ft | 419 kts | 239° |
| 2026-04-28 12:46 | 47.36534 | 59.10814 | 38129 ft | 419 kts | 239° |
| 2026-04-28 12:46 | 47.33686 | 59.03281 | 38129 ft | 419 kts | 239° |
| 2026-04-28 12:47 | 47.30835 | 58.95764 | 38129 ft | 419 kts | 239° |
| 2026-04-28 12:47 | 47.27983 | 58.88266 | 38129 ft | 418 kts | 239° |
| 2026-04-28 12:48 | 47.25136 | 58.80797 | 38128 ft | 418 kts | 239° |
| 2026-04-28 12:48 | 47.22286 | 58.73343 | 38125 ft | 418 kts | 239° |
| 2026-04-28 12:49 | 47.19426 | 58.65885 | 38125 ft | 418 kts | 239° |
| 2026-04-28 12:49 | 47.16563 | 58.58440 | 38125 ft | 418 kts | 239° |
| 2026-04-28 12:50 | 47.13698 | 58.51010 | 38120 ft | 418 kts | 239° |
| 2026-04-28 12:50 | 47.10817 | 58.43556 | 38114 ft | 418 kts | 239° |
| 2026-04-28 12:51 | 47.07943 | 58.36138 | 38116 ft | 418 kts | 239° |
| 2026-04-28 12:51 | 47.05065 | 58.28743 | 38120 ft | 418 kts | 238° |
| 2026-04-28 12:52 | 47.02174 | 58.21328 | 38121 ft | 418 kts | 238° |
| 2026-04-28 12:52 | 46.99279 | 58.13927 | 38121 ft | 418 kts | 238° |
| 2026-04-28 12:53 | 46.96380 | 58.06530 | 38121 ft | 418 kts | 238° |
| 2026-04-28 12:53 | 46.93479 | 57.99146 | 38120 ft | 418 kts | 238° |
| 2026-04-28 12:54 | 46.90573 | 57.91768 | 38120 ft | 418 kts | 238° |
| 2026-04-28 12:54 | 46.87677 | 57.84436 | 38117 ft | 418 kts | 238° |
| 2026-04-28 12:55 | 46.84745 | 57.77035 | 38113 ft | 417 kts | 239° |
| 2026-04-28 12:55 | 46.81827 | 57.69690 | 38117 ft | 417 kts | 239° |
| 2026-04-28 12:56 | 46.78915 | 57.62384 | 38120 ft | 417 kts | 239° |
| 2026-04-28 12:56 | 46.76005 | 57.55099 | 38122 ft | 417 kts | 239° |
| 2026-04-28 12:57 | 46.73075 | 57.47782 | 38123 ft | 417 kts | 239° |
| 2026-04-28 12:57 | 46.70142 | 57.40477 | 38122 ft | 417 kts | 239° |
| 2026-04-28 12:58 | 46.67215 | 57.33208 | 38121 ft | 417 kts | 238° |
| 2026-04-28 12:58 | 46.64267 | 57.25901 | 38119 ft | 416 kts | 238° |
| 2026-04-28 12:59 | 46.61324 | 57.18626 | 38118 ft | 416 kts | 238° |
| 2026-04-28 12:59 | 46.58403 | 57.11424 | 38119 ft | 415 kts | 238° |
| 2026-04-28 13:00 | 46.55431 | 57.04116 | 38126 ft | 415 kts | 238° |
| 2026-04-28 13:00 | 46.52479 | 56.96912 | 38133 ft | 415 kts | 237° |
| 2026-04-28 13:01 | 46.49202 | 56.90066 | 38136 ft | 415 kts | 232° |
| 2026-04-28 13:01 | 46.45418 | 56.83668 | 38138 ft | 415 kts | 226° |
| 2026-04-28 13:02 | 46.41265 | 56.77945 | 38139 ft | 414 kts | 221° |
| 2026-04-28 13:02 | 46.36857 | 56.72474 | 38140 ft | 414 kts | 221° |
| 2026-04-28 13:03 | 46.32511 | 56.67074 | 38140 ft | 414 kts | 221° |
| 2026-04-28 13:03 | 46.29063 | 56.62806 | 38140 ft | 413 kts | 221° |
| 2026-04-28 13:04 | 46.24658 | 56.57366 | 38140 ft | 413 kts | 221° |
| 2026-04-28 13:04 | 46.20274 | 56.51967 | 38140 ft | 413 kts | 221° |
| 2026-04-28 13:05 | 46.15875 | 56.46563 | 38140 ft | 413 kts | 221° |
| 2026-04-28 13:05 | 46.11457 | 56.41148 | 38140 ft | 413 kts | 222° |
| 2026-04-28 13:06 | 46.07062 | 56.35772 | 38140 ft | 413 kts | 222° |
| 2026-04-28 13:06 | 46.02692 | 56.30440 | 38140 ft | 413 kts | 221° |
| 2026-04-28 13:07 | 45.98295 | 56.25084 | 38140 ft | 413 kts | 221° |
| 2026-04-28 13:07 | 45.93912 | 56.19757 | 38139 ft | 413 kts | 221° |
| 2026-04-28 13:08 | 45.89523 | 56.14435 | 38137 ft | 413 kts | 221° |
| 2026-04-28 13:08 | 45.85121 | 56.09108 | 38137 ft | 413 kts | 221° |
| 2026-04-28 13:09 | 45.80729 | 56.03805 | 38138 ft | 413 kts | 221° |
| 2026-04-28 13:09 | 45.76316 | 55.98488 | 38139 ft | 413 kts | 221° |
| 2026-04-28 13:10 | 45.71887 | 55.93163 | 38139 ft | 413 kts | 221° |
| 2026-04-28 13:10 | 45.67496 | 55.87896 | 38139 ft | 413 kts | 221° |
| 2026-04-28 13:11 | 45.63072 | 55.82601 | 38138 ft | 413 kts | 221° |
| 2026-04-28 13:11 | 45.58635 | 55.77301 | 38137 ft | 412 kts | 221° |
| 2026-04-28 13:12 | 45.54198 | 55.72010 | 38140 ft | 412 kts | 221° |
| 2026-04-28 13:12 | 45.49717 | 55.66680 | 38143 ft | 412 kts | 221° |
| 2026-04-28 13:13 | 45.45275 | 55.61408 | 38144 ft | 412 kts | 221° |
| 2026-04-28 13:13 | 45.40837 | 55.56152 | 38144 ft | 412 kts | 221° |
| 2026-04-28 13:14 | 45.36384 | 55.50887 | 38144 ft | 412 kts | 222° |
| 2026-04-28 13:14 | 45.31939 | 55.45643 | 38143 ft | 411 kts | 222° |
| 2026-04-28 13:15 | 45.27491 | 55.40405 | 38143 ft | 411 kts | 222° |
| 2026-04-28 13:15 | 45.23043 | 55.35178 | 38143 ft | 411 kts | 222° |
| 2026-04-28 13:16 | 45.18592 | 55.29959 | 38143 ft | 411 kts | 221° |
| 2026-04-28 13:16 | 45.14124 | 55.24728 | 38143 ft | 411 kts | 221° |
| 2026-04-28 13:16 | 45.11898 | 55.22123 | 37980 ft | 414 kts | 221° |
| 2026-04-28 13:17 | 45.09681 | 55.19532 | 37587 ft | 413 kts | 222° |
| 2026-04-28 13:17 | 45.07536 | 55.16885 | 37528 ft | 396 kts | 224° |
| 2026-04-28 13:17 | 45.05512 | 55.14248 | 37364 ft | 398 kts | 224° |
| 2026-04-28 13:17 | 45.03424 | 55.11539 | 37145 ft | 406 kts | 224° |
| 2026-04-28 13:18 | 45.01318 | 55.08812 | 36927 ft | 408 kts | 224° |
| 2026-04-28 13:18 | 44.99188 | 55.06056 | 36707 ft | 409 kts | 224° |
| 2026-04-28 13:18 | 44.97080 | 55.03329 | 36489 ft | 409 kts | 224° |
| 2026-04-28 13:18 | 44.94947 | 55.00569 | 36269 ft | 410 kts | 224° |
| 2026-04-28 13:19 | 44.92831 | 54.97835 | 36156 ft | 409 kts | 224° |
| 2026-04-28 13:19 | 44.88596 | 54.92368 | 36138 ft | 410 kts | 224° |
| 2026-04-28 13:20 | 44.84343 | 54.86888 | 36133 ft | 410 kts | 225° |
| 2026-04-28 13:20 | 44.80086 | 54.81412 | 36145 ft | 410 kts | 225° |
| 2026-04-28 13:21 | 44.75820 | 54.75937 | 36151 ft | 410 kts | 225° |
| 2026-04-28 13:21 | 44.71550 | 54.70464 | 36280 ft | 411 kts | 225° |
| 2026-04-28 13:21 | 44.69422 | 54.67744 | 36473 ft | 409 kts | 225° |
| 2026-04-28 13:22 | 44.67280 | 54.65010 | 36651 ft | 408 kts | 225° |
| 2026-04-28 13:22 | 44.65170 | 54.62320 | 36804 ft | 408 kts | 225° |
| 2026-04-28 13:22 | 44.63039 | 54.59609 | 36950 ft | 408 kts | 225° |
| 2026-04-28 13:22 | 44.60907 | 54.56899 | 37093 ft | 408 kts | 225° |
| 2026-04-28 13:23 | 44.58769 | 54.54183 | 37233 ft | 407 kts | 225° |
| 2026-04-28 13:23 | 44.56670 | 54.51519 | 37368 ft | 407 kts | 225° |
| 2026-04-28 13:23 | 44.54541 | 54.48819 | 37500 ft | 407 kts | 225° |
| 2026-04-28 13:23 | 44.52416 | 54.46125 | 37630 ft | 406 kts | 225° |
| 2026-04-28 13:24 | 44.50325 | 54.43477 | 37754 ft | 406 kts | 225° |
| 2026-04-28 13:24 | 44.48207 | 54.40797 | 37876 ft | 406 kts | 225° |
| 2026-04-28 13:24 | 44.46091 | 54.38123 | 37998 ft | 405 kts | 225° |
| 2026-04-28 13:24 | 44.43988 | 54.35467 | 38108 ft | 404 kts | 225° |
| 2026-04-28 13:25 | 44.41880 | 54.32809 | 38155 ft | 405 kts | 224° |
| 2026-04-28 13:25 | 44.37672 | 54.27511 | 38166 ft | 404 kts | 224° |
| 2026-04-28 13:26 | 44.33485 | 54.22248 | 38169 ft | 403 kts | 224° |
| 2026-04-28 13:26 | 44.29281 | 54.16975 | 38163 ft | 402 kts | 224° |
| 2026-04-28 13:27 | 44.25063 | 54.11694 | 38161 ft | 402 kts | 224° |
| 2026-04-28 13:27 | 44.20856 | 54.06437 | 38161 ft | 401 kts | 224° |
| 2026-04-28 13:28 | 44.16682 | 54.01231 | 38162 ft | 401 kts | 224° |
| 2026-04-28 13:28 | 44.12489 | 53.96014 | 38164 ft | 400 kts | 224° |
| 2026-04-28 13:29 | 44.08310 | 53.90822 | 38165 ft | 400 kts | 224° |
| 2026-04-28 13:29 | 44.04136 | 53.85647 | 38168 ft | 399 kts | 224° |
| 2026-04-28 13:30 | 43.99958 | 53.80476 | 38171 ft | 399 kts | 224° |
| 2026-04-28 13:30 | 43.95792 | 53.75329 | 38173 ft | 399 kts | 224° |
| 2026-04-28 13:31 | 43.89508 | 53.67586 | 38174 ft | 399 kts | 224° |
| 2026-04-28 13:31 | 43.85258 | 53.62370 | 38173 ft | 399 kts | 224° |
| 2026-04-28 13:32 | 43.81060 | 53.57224 | 38172 ft | 399 kts | 224° |
| 2026-04-28 13:32 | 43.76867 | 53.52092 | 38167 ft | 399 kts | 224° |
| 2026-04-28 13:33 | 43.72656 | 53.46948 | 38162 ft | 399 kts | 224° |
| 2026-04-28 13:33 | 43.68436 | 53.41801 | 38160 ft | 400 kts | 224° |
| 2026-04-28 13:34 | 43.64215 | 53.36663 | 38162 ft | 401 kts | 224° |
| 2026-04-28 13:34 | 43.59991 | 53.31536 | 38168 ft | 401 kts | 224° |
| 2026-04-28 13:35 | 43.55798 | 53.26455 | 38175 ft | 401 kts | 224° |
| 2026-04-28 13:35 | 43.51551 | 53.21327 | 38178 ft | 401 kts | 224° |
| 2026-04-28 13:36 | 43.47313 | 53.16216 | 38179 ft | 400 kts | 224° |
| 2026-04-28 13:36 | 43.43097 | 53.11140 | 38180 ft | 400 kts | 223° |
| 2026-04-28 13:37 | 43.38898 | 53.06094 | 38181 ft | 400 kts | 223° |
| 2026-04-28 13:37 | 43.34678 | 53.01030 | 38180 ft | 400 kts | 223° |
| 2026-04-28 13:38 | 43.30473 | 52.95995 | 38180 ft | 400 kts | 223° |
| 2026-04-28 13:38 | 43.26257 | 52.90956 | 38179 ft | 400 kts | 223° |
| 2026-04-28 13:39 | 43.22018 | 52.85899 | 38179 ft | 400 kts | 223° |
| 2026-04-28 13:39 | 43.17774 | 52.80846 | 38178 ft | 400 kts | 223° |
| 2026-04-28 13:40 | 43.13550 | 52.75826 | 38175 ft | 399 kts | 223° |
| 2026-04-28 13:40 | 43.09323 | 52.70812 | 38174 ft | 399 kts | 223° |
| 2026-04-28 13:41 | 43.05083 | 52.65792 | 38173 ft | 399 kts | 223° |
| 2026-04-28 13:41 | 43.00851 | 52.60791 | 38173 ft | 400 kts | 223° |
| 2026-04-28 13:42 | 42.96622 | 52.55802 | 38173 ft | 400 kts | 223° |
| 2026-04-28 13:42 | 42.92404 | 52.50836 | 38173 ft | 400 kts | 223° |
| 2026-04-28 13:43 | 42.88147 | 52.45835 | 38173 ft | 400 kts | 223° |
| 2026-04-28 13:43 | 42.83942 | 52.40904 | 38172 ft | 400 kts | 223° |
| 2026-04-28 13:44 | 42.79689 | 52.35925 | 38171 ft | 400 kts | 223° |
| 2026-04-28 13:44 | 42.75465 | 52.30990 | 38171 ft | 400 kts | 222° |
| 2026-04-28 13:45 | 42.71236 | 52.26057 | 38170 ft | 400 kts | 222° |
| 2026-04-28 13:45 | 42.66968 | 52.21088 | 38170 ft | 400 kts | 222° |
| 2026-04-28 13:46 | 42.62741 | 52.16177 | 38169 ft | 400 kts | 222° |
| 2026-04-28 13:46 | 42.58472 | 52.11226 | 38169 ft | 400 kts | 222° |
| 2026-04-28 13:47 | 42.54222 | 52.06305 | 38168 ft | 400 kts | 222° |
| 2026-04-28 13:47 | 42.49996 | 52.01424 | 38168 ft | 400 kts | 222° |
| 2026-04-28 13:48 | 42.45722 | 51.96492 | 38167 ft | 400 kts | 222° |
| 2026-04-28 13:48 | 42.41476 | 51.91601 | 38166 ft | 400 kts | 222° |
| 2026-04-28 13:49 | 42.37220 | 51.86710 | 38165 ft | 400 kts | 222° |
| 2026-04-28 13:49 | 42.32938 | 51.81797 | 38163 ft | 400 kts | 222° |
| 2026-04-28 13:50 | 42.28659 | 51.76897 | 38161 ft | 400 kts | 222° |
| 2026-04-28 13:50 | 42.24406 | 51.72041 | 38158 ft | 400 kts | 222° |
| 2026-04-28 13:51 | 42.20143 | 51.67181 | 38155 ft | 400 kts | 222° |
| 2026-04-28 13:51 | 42.15859 | 51.62302 | 38154 ft | 400 kts | 222° |
| 2026-04-28 13:52 | 42.11577 | 51.57433 | 38153 ft | 400 kts | 222° |
| 2026-04-28 13:52 | 42.07335 | 51.52620 | 38152 ft | 400 kts | 222° |
| 2026-04-28 13:53 | 42.03022 | 51.47700 | 38151 ft | 401 kts | 223° |
| 2026-04-28 13:53 | 41.99043 | 51.42472 | 38151 ft | 400 kts | 227° |
| 2026-04-28 13:54 | 41.95157 | 51.36988 | 38149 ft | 400 kts | 227° |
| 2026-04-28 13:54 | 41.91307 | 51.31567 | 38149 ft | 401 kts | 227° |
| 2026-04-28 13:55 | 41.87456 | 51.26149 | 38150 ft | 402 kts | 227° |
| 2026-04-28 13:55 | 41.83563 | 51.20676 | 38150 ft | 403 kts | 227° |
| 2026-04-28 13:56 | 41.79783 | 51.15373 | 38147 ft | 403 kts | 227° |
| 2026-04-28 13:56 | 41.75840 | 51.09848 | 38162 ft | 403 kts | 227° |
| 2026-04-28 13:57 | 41.71912 | 51.04356 | 38176 ft | 404 kts | 227° |
| 2026-04-28 13:57 | 41.67974 | 50.98858 | 38180 ft | 404 kts | 227° |
| 2026-04-28 13:58 | 41.64036 | 50.93371 | 38180 ft | 404 kts | 226° |
| 2026-04-28 13:58 | 41.60082 | 50.87872 | 38180 ft | 404 kts | 226° |
| 2026-04-28 13:59 | 41.56115 | 50.82367 | 38179 ft | 404 kts | 226° |
| 2026-04-28 13:59 | 41.52145 | 50.76868 | 38180 ft | 405 kts | 226° |
| 2026-04-28 14:00 | 41.48195 | 50.71407 | 38180 ft | 405 kts | 226° |
| 2026-04-28 14:00 | 41.44223 | 50.65924 | 38181 ft | 405 kts | 226° |
| 2026-04-28 14:01 | 41.40239 | 50.60434 | 38181 ft | 406 kts | 226° |
| 2026-04-28 14:01 | 41.36268 | 50.54973 | 38181 ft | 406 kts | 226° |
| 2026-04-28 14:02 | 41.32281 | 50.49503 | 38182 ft | 406 kts | 226° |
| 2026-04-28 14:02 | 41.28312 | 50.44064 | 38006 ft | 401 kts | 226° |
| 2026-04-28 14:03 | 41.26338 | 50.41363 | 37546 ft | 399 kts | 226° |
| 2026-04-28 14:03 | 41.24380 | 50.38685 | 37015 ft | 397 kts | 226° |
| 2026-04-28 14:03 | 41.22446 | 50.36042 | 36545 ft | 394 kts | 226° |
| 2026-04-28 14:03 | 41.20519 | 50.33414 | 36010 ft | 393 kts | 226° |
| 2026-04-28 14:04 | 41.18590 | 50.30786 | 35344 ft | 393 kts | 226° |
| 2026-04-28 14:04 | 41.16647 | 50.28142 | 34622 ft | 395 kts | 226° |
| 2026-04-28 14:04 | 41.14618 | 50.25661 | 33855 ft | 400 kts | 217° |
| 2026-04-28 14:04 | 41.12087 | 50.23949 | 32995 ft | 408 kts | 202° |
| 2026-04-28 14:05 | 41.09259 | 50.23238 | 32071 ft | 418 kts | 187° |
| 2026-04-28 14:05 | 41.06240 | 50.23493 | 31143 ft | 426 kts | 179° |
| 2026-04-28 14:05 | 41.03256 | 50.23936 | 30237 ft | 428 kts | 179° |
| 2026-04-28 14:05 | 41.00255 | 50.24384 | 29293 ft | 430 kts | 179° |
| 2026-04-28 14:06 | 40.97210 | 50.24839 | 28307 ft | 431 kts | 178° |
| 2026-04-28 14:06 | 40.94224 | 50.25289 | 27571 ft | 424 kts | 178° |
| 2026-04-28 14:06 | 40.91289 | 50.25733 | 26856 ft | 418 kts | 178° |
| 2026-04-28 14:06 | 40.88406 | 50.26168 | 26134 ft | 413 kts | 178° |
| 2026-04-28 14:07 | 40.85536 | 50.26600 | 25412 ft | 409 kts | 178° |
| 2026-04-28 14:07 | 40.82697 | 50.27026 | 24687 ft | 405 kts | 178° |
| 2026-04-28 14:07 | 40.79844 | 50.27454 | 23962 ft | 402 kts | 178° |
| 2026-04-28 14:07 | 40.77054 | 50.27873 | 23276 ft | 399 kts | 178° |
| 2026-04-28 14:08 | 40.74229 | 50.28296 | 22605 ft | 395 kts | 177° |
| 2026-04-28 14:08 | 40.71470 | 50.28709 | 21950 ft | 392 kts | 177° |
| 2026-04-28 14:08 | 40.68739 | 50.29117 | 21300 ft | 388 kts | 177° |
| 2026-04-28 14:08 | 40.66949 | 50.29385 | 20867 ft | 386 kts | 177° |
| 2026-04-28 14:09 | 40.63345 | 50.29781 | 20011 ft | 379 kts | 181° |
| 2026-04-28 14:09 | 40.60686 | 50.29827 | 19381 ft | 375 kts | 183° |
| 2026-04-28 14:09 | 40.58057 | 50.29831 | 18753 ft | 370 kts | 183° |
| 2026-04-28 14:09 | 40.55460 | 50.29834 | 18113 ft | 367 kts | 183° |
| 2026-04-28 14:10 | 40.52896 | 50.29836 | 17475 ft | 363 kts | 183° |
| 2026-04-28 14:10 | 40.50332 | 50.29836 | 16826 ft | 362 kts | 183° |
| 2026-04-28 14:10 | 40.47792 | 50.29834 | 16215 ft | 359 kts | 183° |
| 2026-04-28 14:10 | 40.45282 | 50.29831 | 15609 ft | 355 kts | 183° |
| 2026-04-28 14:11 | 40.42804 | 50.29831 | 14990 ft | 353 kts | 183° |
| 2026-04-28 14:11 | 40.40330 | 50.29830 | 14374 ft | 350 kts | 183° |
| 2026-04-28 14:11 | 40.37870 | 50.29831 | 13930 ft | 337 kts | 182° |
| 2026-04-28 14:11 | 40.35583 | 50.29839 | 13508 ft | 314 kts | 182° |
| 2026-04-28 14:12 | 40.33425 | 50.29842 | 13030 ft | 295 kts | 182° |
| 2026-04-28 14:12 | 40.31407 | 50.29841 | 12488 ft | 282 kts | 182° |
| 2026-04-28 14:12 | 40.29443 | 50.29843 | 11752 ft | 278 kts | 182° |
| 2026-04-28 14:12 | 40.27515 | 50.29843 | 10973 ft | 276 kts | 182° |
| 2026-04-28 14:13 | 40.25577 | 50.29841 | 10205 ft | 273 kts | 182° |
| 2026-04-28 14:13 | 40.23640 | 50.29856 | 9428 ft | 271 kts | 181° |
| 2026-04-28 14:13 | 40.21738 | 50.29894 | 8661 ft | 269 kts | 181° |
| 2026-04-28 14:13 | 40.19849 | 50.29935 | 7887 ft | 269 kts | 181° |
| 2026-04-28 14:14 | 40.17954 | 50.29972 | 7463 ft | 264 kts | 180° |
| 2026-04-28 14:14 | 40.16119 | 50.30011 | 7266 ft | 255 kts | 180° |
| 2026-04-28 14:14 | 40.14350 | 50.30047 | 7063 ft | 245 kts | 180° |
| 2026-04-28 14:14 | 40.12680 | 50.29779 | 6854 ft | 235 kts | 206° |
| 2026-04-28 14:15 | 40.11472 | 50.28388 | 6546 ft | 227 kts | 239° |
| 2026-04-28 14:15 | 40.10634 | 50.26597 | 6237 ft | 227 kts | 240° |
| 2026-04-28 14:15 | 40.09783 | 50.24838 | 5922 ft | 227 kts | 239° |
| 2026-04-28 14:15 | 40.08911 | 50.23098 | 5620 ft | 227 kts | 238° |
| 2026-04-28 14:16 | 40.08033 | 50.21313 | 5313 ft | 225 kts | 243° |
| 2026-04-28 14:16 | 40.07422 | 50.19401 | 4970 ft | 224 kts | 256° |
| 2026-04-28 14:16 | 40.07028 | 50.17427 | 4678 ft | 222 kts | 258° |
| 2026-04-28 14:16 | 40.06665 | 50.15440 | 4385 ft | 221 kts | 259° |
| 2026-04-28 14:17 | 40.06305 | 50.13463 | 4054 ft | 221 kts | 259° |
| 2026-04-28 14:17 | 40.05930 | 50.11480 | 3725 ft | 221 kts | 260° |
| 2026-04-28 14:17 | 40.05682 | 50.09504 | 3409 ft | 217 kts | 272° |
| 2026-04-28 14:17 | 40.05740 | 50.07516 | 3089 ft | 213 kts | 281° |
| 2026-04-28 14:18 | 40.05903 | 50.05573 | 2800 ft | 211 kts | 282° |
| 2026-04-28 14:18 | 40.06070 | 50.03661 | 2513 ft | 209 kts | 282° |
| 2026-04-28 14:18 | 40.06228 | 50.01775 | 2223 ft | 206 kts | 282° |
| 2026-04-28 14:18 | 40.06383 | 49.99887 | 2014 ft | 201 kts | 283° |
| 2026-04-28 14:19 | 40.06686 | 49.98117 | 2001 ft | 198 kts | 295° |
| 2026-04-28 14:19 | 40.06888 | 49.97429 | 2002 ft | 199 kts | 300° |
| 2026-04-28 14:20 | 40.07440 | 49.95874 | 2004 ft | 197 kts | 303° |
| 2026-04-28 14:20 | 40.08048 | 49.94258 | 1995 ft | 195 kts | 304° |
| 2026-04-28 14:20 | 40.08667 | 49.92639 | 1990 ft | 195 kts | 303° |
| 2026-04-28 14:21 | 40.09382 | 49.91150 | 1976 ft | 188 kts | 322° |
| 2026-04-28 14:21 | 40.10492 | 49.90319 | 1982 ft | 174 kts | 348° |
| 2026-04-28 14:21 | 40.11671 | 49.90241 | 1970 ft | 163 kts | 9° |
| 2026-04-28 14:21 | 40.12737 | 49.90787 | 1986 ft | 166 kts | 30° |
| 2026-04-28 14:22 | 40.13685 | 49.91692 | 1995 ft | 167 kts | 31° |
| 2026-04-28 14:22 | 40.14635 | 49.92626 | 1989 ft | 167 kts | 31° |
| 2026-04-28 14:22 | 40.15580 | 49.93559 | 1999 ft | 167 kts | 31° |
| 2026-04-28 14:22 | 40.16520 | 49.94495 | 1999 ft | 168 kts | 31° |
| 2026-04-28 14:23 | 40.17463 | 49.95432 | 1992 ft | 168 kts | 31° |
| 2026-04-28 14:23 | 40.18413 | 49.96378 | 2000 ft | 167 kts | 31° |
| 2026-04-28 14:23 | 40.19348 | 49.97311 | 1992 ft | 167 kts | 31° |
| 2026-04-28 14:23 | 40.20287 | 49.98256 | 2022 ft | 163 kts | 31° |
| 2026-04-28 14:24 | 40.21151 | 49.99128 | 2034 ft | 147 kts | 30° |
| 2026-04-28 14:24 | 40.21939 | 49.99916 | 1993 ft | 139 kts | 31° |
| 2026-04-28 14:24 | 40.22718 | 50.00695 | 2023 ft | 139 kts | 30° |
| 2026-04-28 14:24 | 40.23509 | 50.01485 | 2003 ft | 139 kts | 31° |
| 2026-04-28 14:25 | 40.24287 | 50.02263 | 1987 ft | 139 kts | 31° |
| 2026-04-28 14:25 | 40.25078 | 50.03061 | 1977 ft | 139 kts | 31° |
| 2026-04-28 14:25 | 40.25850 | 50.03836 | 1972 ft | 139 kts | 31° |
| 2026-04-28 14:25 | 40.26636 | 50.04623 | 1966 ft | 139 kts | 31° |
| 2026-04-28 14:26 | 40.27421 | 50.05413 | 1966 ft | 139 kts | 31° |
| 2026-04-28 14:26 | 40.28204 | 50.06193 | 1966 ft | 139 kts | 31° |
| 2026-04-28 14:26 | 40.28983 | 50.06973 | 1965 ft | 139 kts | 31° |
| 2026-04-28 14:26 | 40.29754 | 50.07749 | 1966 ft | 139 kts | 32° |
| 2026-04-28 14:27 | 40.30584 | 50.08406 | 1952 ft | 136 kts | 10° |
| 2026-04-28 14:27 | 40.31533 | 50.08409 | 1970 ft | 135 kts | 353° |
| 2026-04-28 14:27 | 40.32343 | 50.08233 | 1967 ft | 134 kts | 350° |
| 2026-04-28 14:28 | 40.32423 | 50.08213 | 1967 ft | 134 kts | 350° |
| 2026-04-28 14:28 | 40.33365 | 50.07959 | 1965 ft | 134 kts | 348° |
| 2026-04-28 14:29 | 40.34275 | 50.07692 | 1963 ft | 134 kts | 348° |
| 2026-04-28 14:29 | 40.35187 | 50.07414 | 1965 ft | 133 kts | 348° |
| 2026-04-28 14:29 | 40.36104 | 50.07129 | 1949 ft | 134 kts | 348° |
| 2026-04-28 14:29 | 40.37014 | 50.06844 | 1777 ft | 133 kts | 348° |
| 2026-04-28 14:30 | 40.37922 | 50.06559 | 1599 ft | 132 kts | 347° |
| 2026-04-28 14:30 | 40.38849 | 50.06265 | 1423 ft | 137 kts | 348° |
| 2026-04-28 14:30 | 40.39793 | 50.05967 | 1237 ft | 138 kts | 347° |
| 2026-04-28 14:30 | 40.40729 | 50.05671 | 1040 ft | 137 kts | 347° |
| 2026-04-28 14:31 | 40.41667 | 50.05348 | 861 ft | 137 kts | 345° |
| 2026-04-28 14:31 | 40.42609 | 50.05061 | 668 ft | 137 kts | 348° |
| 2026-04-28 14:31 | 40.43541 | 50.04786 | 476 ft | 136 kts | 345° |
| 2026-04-28 14:31 | 40.44477 | 50.04494 | 316 ft | 134 kts | 347° |
| 2026-04-28 14:32 | 40.45374 | 50.04227 | 117 ft | 125 kts | 349° |
| 2026-04-28 14:32 | 40.46164 | 50.03971 | 16 ft | 105 kts | 356° |
| 2026-04-28 14:32 | 40.46738 | 50.03781 | 15 ft | 60 kts | 345° |
| 2026-04-28 14:32 | 40.47127 | 50.03647 | 16 ft | 59 kts | 344° |
| 2026-04-28 14:33 | 40.47517 | 50.03518 | 15 ft | 41 kts | 346° |
| 2026-04-28 14:33 | 40.47669 | 50.03621 | 15 ft | 26 kts | 125° |
| 2026-04-28 14:33 | 40.47498 | 50.03701 | 15 ft | 29 kts | 155° |
| 2026-04-28 14:33 | 40.47282 | 50.03799 | 15 ft | 34 kts | 161° |
| 2026-04-28 14:34 | 40.46861 | 50.04105 | 15 ft | 31 kts | 69° |
| 2026-04-28 14:34 | 40.46910 | 50.04400 | 15 ft | 34 kts | 81° |
| 2026-04-28 14:34 | 40.46923 | 50.04620 | 15 ft | 36 kts | 89° |
| 2026-04-28 14:35 | 40.46842 | 50.04900 | 15 ft | 16 kts | 169° |
| 2026-04-28 14:35 | 40.46784 | 50.04955 | 15 ft | 5 kts | 106° |
| 2026-04-28 14:35 | 40.46780 | 50.04969 | 16 ft | 0 kts | 108° |